This is the latest recevied weather packets stored in our database for station/object CT1ETE-13. If no packets are shown the sender has not sent any weather packets the latest 10 day(s).
| Time | Temp. | Humidity | Pressure | Rain* | Wind** | Luminosity | Snow |
|---|---|---|---|---|---|---|---|
| 1787756804 | 18.89° C | 84% | 1008.5 hPa | 0 mm | - | 1445 W/m² | - |
| 1787755903 | 18.89° C | 84% | 1008.5 hPa | 0 mm | - | 1445 W/m² | - |
| 1787754999 | 18.33° C | 84% | 1008.5 hPa | 0 mm | - | 1447 W/m² | - |
| 1787754100 | 18.33° C | 83% | 1008.5 hPa | 0 mm | - | 1443 W/m² | - |
| 1787753201 | 18.33° C | 83% | 1008.5 hPa | 0 mm | - | 1443 W/m² | - |
| 1787752301 | 18.33° C | 83% | 1008.9 hPa | 0 mm | - | 1440 W/m² | - |
| 1787751401 | 18.33° C | 82% | 1008.8 hPa | 0 mm | - | 1438 W/m² | - |
| 1787750501 | 18.33° C | 82% | 1008.7 hPa | 0 mm | - | 1441 W/m² | - |
| 1787749603 | 17.22° C | 84% | 1008.2 hPa | 0 mm | - | 1454 W/m² | - |
| 1787748760 | 16.67° C | 84% | 1008.1 hPa | 0 mm | - | 1461 W/m² | - |
| 1787747794 | 17.22° C | 80% | 1008.3 hPa | 0 mm | - | 1459 W/m² | - |
| 1787746894 | 17.22° C | 81% | 1007.7 hPa | 0 mm | - | 1459 W/m² | - |
| 1787745994 | 16.67° C | 84% | 1007.6 hPa | 0 mm | - | 1463 W/m² | - |
| 1787745095 | 16.67° C | 85% | 1008 hPa | 0 mm | - | 1471 W/m² | - |
| 1787744196 | 15.56° C | 85% | 1008.8 hPa | 0.25 mm | - | 1482 W/m² | - |
| 1787743295 | 15° C | 85% | 1008.1 hPa | 0.76 mm | - | 1484 W/m² | - |
| 1787742393 | 15° C | 85% | 1007.7 hPa | 1.78 mm | - | 1484 W/m² | - |
| 1787741493 | 15° C | 83% | 1007.6 hPa | 2.79 mm | - | 1484 W/m² | - |
| 1787740593 | 14.44° C | 80% | 1007.4 hPa | 3.56 mm | - | 1484 W/m² | - |
| 1787739691 | 14.44° C | 77% | 1009.2 hPa | 4.32 mm | - | 1484 W/m² | - |
| 1787738789 | 15° C | 78% | 1009.2 hPa | 3.56 mm | - | 1484 W/m² | - |
| 1787737887 | 15° C | 81% | 1009.3 hPa | 2.54 mm | - | 1485 W/m² | - |
| 1787737048 | 15° C | 84% | 1009.3 hPa | 2.03 mm | - | 1484 W/m² | - |
| 1787736147 | 15.56° C | 84% | 1009.4 hPa | 1.78 mm | - | 1482 W/m² | - |
| 1787735187 | 15.56° C | 80% | 1008.3 hPa | 2.29 mm | - | 1480 W/m² | - |
* Rain latest hour (hover to see other rain measurements)
** Current wind speed in m/s (hover to see current wind gust speed)